الصفحة الرئيسية
METAR-TAF:

METAR-TAF

مطار :

مطار محج قلعة الدولي

محج قلعة, روسيا

دائرة عرض: 42-49-01N, خط طول: 047-39-08E, ارتفاع: 4 متر

مراقبة الطقس الحالي

تاريخ ووقت الإصدار 28 دقيقة قبل الساعة 05:00UTC
ريح 4 عقدة من الجنوب, الاتجاه يتراوح بين الجنوب و الغرب/الجنوب الغربي
درجة الحرارة 3°درجة مئوية
الرطوبة 65%
ضغط 1032 hPa
الرؤية 10 كم أو أكثر

METAR: URML 290500Z 18002MPS 170V240 9999 NSC 03/M03 Q1032 R14/01//70 NOSIG RMK QFE774/1032

زمن: 08:28 (05:28 UTC)

توقعات

تاريخ ووقت الإصدار 3ساعات و 28 دقيقة قبل الساعة 02:00UTC
التوقعات صالحة من29 الساعة 03 UTC إلى 29 الساعة 12 UTC
ريح 6 عقدة من الجنوب تتزايد حتى 16 عقدة
الرؤية: 6000 متر
غيوم مفككة على ارتفاع 1600 قدم
مؤقت
من 29 الساعة 03 UTC إلى 29 الساعة 05 UTC
ريح 6 عقدة من الجنوب تتزايد حتى 16 عقدة
أصبح
من 29 الساعة 05 UTC إلى 29 الساعة 07 UTC
ريح 12 عقدة من الجنوب/الجنوب الشرقي تتزايد حتى 21 عقدة

TAF: URML 290200Z 2903/2912 19003G08MPS 6000 BKN016 TEMPO 2903/2905 17003G08MPS BECMG 2905/2907 16006G11MPS

أرصاد الطقس والتوقعات من أكثر من 4000 مطار (تقارير الطقس للمطار METAR والتنبؤ بالطقس بالمطارTAF).

المحطات المتاحة هي النقط الصفراء والحمراء على الخريطة.

حرك المؤشر فوق النقطة لمعرفة اسم المحطة.

ثم انقر لمعرفة أرصاد وتوقعات الطقس.

لتغيير الخارطة: اضغط على الأزرار الخضراء مع رمز الصليب الأسود للتكبير. على الزر الأخضر مع شرطة للتصغير، أو على الأسهم الخضراء للخرائط المجاورة.


METAR-TAF: